Nearby METAR Reports

 

KBMG - Bloomington, Indiana, USA
Distance from station: SSE 11mi, 18km
Updated: Tue, 25-Jun-2019 2:53pm EDT
Clear
Clear
 Wind from SW
Wind: SW 14 mph , 22 km/h
Temperature: 82°F , 28°C
Heat Index: 83°F , 28°C
Dew Point: 63°F , 17°C
Humidity: 51%
Barometer: 30.03 inHg , 1016.9 hPa
Clouds: Clear
Visibility: 10 miles , 16 km
2019/06/25 18:53 KBMG 251853Z 22012KT 10SM CLR 28/17 A3003 RMK AO2 SLP160 T02780167
KGPC - Greencastle, Indiana, USA
Distance from station: NNW 24mi, 39km
Updated: Tue, 25-Jun-2019 3:55pm EDT
Clear
Clear
 Wind from SSW
Wind: SSW 3 mph , 6 km/h
Temperature: 81°F , 27°C
Heat Index: 81°F , 27°C
Dew Point: 59°F , 15°C
Humidity: 48%
Barometer: 30.01 inHg , 1016.3 hPa
Clouds: Clear
Visibility: 10 miles , 16 km
2019/06/25 19:55 KGPC 251955Z AUTO 21003KT 10SM CLR 27/15 A3001 RMK AO2
 
KHUF - Terre Haute, Indiana, USA
Distance from station: WNW 34mi, 54km
Updated: Tue, 25-Jun-2019 3:53pm EDT
Clear
Clear
 Wind from SSW
Wind: SSW 14 mph , 22 km/h, Gust: 23 mph , 37 km/h
Temperature: 84°F , 29°C
Heat Index: 84°F , 29°C
Dew Point: 61°F , 16°C
Humidity: 45%
Barometer: 29.99 inHg , 1015.6 hPa
Clouds: Clear
Visibility: 10 miles , 16 km
2019/06/25 19:53 KHUF 251953Z 21012G20KT 10SM CLR 29/16 A2999 RMK AO2 SLP152 T02890161
KIND - Indianapolis, Indiana, USA
Distance from station: NE 36mi, 58km
Updated: Tue, 25-Jun-2019 2:54pm EDT
Few Clouds
Few Clouds
 Wind from SW
Wind: SW 12 mph , 19 km/h, Gust: 22 mph , 35 km/h
Temperature: 82°F , 28°C
Heat Index: 82°F , 28°C
Dew Point: 59°F , 15°C
Humidity: 45%
Barometer: 30.00 inHg , 1015.9 hPa
Clouds: Few Clouds
Visibility: 10 miles , 16 km
Cloud details: Few Clouds 5500 ft
Few Clouds 25000 ft
2019/06/25 18:54 KIND 251854Z 22010G19KT 10SM FEW055 FEW250 28/15 A3000 RMK AO2 SLP153 T02780150
 
KHFY - Indianapolis, Indiana, USA
Distance from station: NE 40mi, 65km
Updated: Tue, 25-Jun-2019 3:35pm EDT
Clear
Clear
 Wind from WSW
Wind: WSW 8 mph , 13 km/h, Gust: 17 mph , 28 km/h
Temperature: 81°F , 27°C
Heat Index: 81°F , 27°C
Dew Point: 59°F , 15°C
Humidity: 48%
Barometer: 30.02 inHg , 1016.6 hPa
Clouds: Clear
Visibility: 10 miles , 16 km
2019/06/25 19:35 KHFY 251935Z AUTO 25007G15KT 10SM CLR 27/15 A3002 RMK AO2 T02720154
KBAK - Columbus/Balkala, Indiana, USA
Distance from station: E 43mi, 69km
Updated: Tue, 25-Jun-2019 3:45pm EDT
Partly cloudy
Partly cloudy
 Wind from SSW
Wind: SSW 14 mph , 22 km/h, Gust: 21 mph , 33 km/h
Temperature: 82°F , 28°C
Heat Index: 82°F , 28°C
Dew Point: 59°F , 15°C
Humidity: 45%
Barometer: 30.02 inHg , 1016.6 hPa
Clouds: Partly cloudy
Visibility: 10 miles , 16 km
Cloud details: Partly cloudy 5000 ft
2019/06/25 19:45 KBAK 251945Z 21012G18KT 10SM SCT050 28/15 A3002
 
KEYE - Indianapolis, Indiana, USA
Distance from station: NNE 43mi, 69km
Updated: Tue, 25-Jun-2019 3:53pm EDT
Clear
Clear
 Wind from SW
Wind: SW 9 mph , 15 km/h, Gust: 21 mph , 33 km/h
Temperature: 82°F , 28°C
Heat Index: 82°F , 28°C
Dew Point: 57°F , 14°C
Humidity: 42%
Barometer: 29.99 inHg , 1015.6 hPa
Clouds: Clear
Visibility: 10 miles , 16 km
2019/06/25 19:53 KEYE 251953Z AUTO 22008G18KT 10SM CLR 28/14 A2999 RMK AO2 SLP149 T02830139
KDCY - Daviess County, Indiana, USA
Distance from station: SSW 47mi, 76km
Updated: Tue, 25-Jun-2019 3:35pm EDT
Clear
Clear
 Wind from WSW
Wind: WSW 12 mph , 19 km/h
Temperature: 82°F , 28°C
Heat Index: 82°F , 28°C
Dew Point: 59°F , 15°C
Humidity: 45%
Barometer: 30.03 inHg , 1016.9 hPa
Clouds: Clear
Visibility: 10 miles , 16 km
2019/06/25 19:35 KDCY 251935Z AUTO 24010KT 10SM CLR 28/15 A3003 RMK AO2 T02820154
 
KCFJ - Crawfordsville, Indiana, USA
Distance from station: NNW 49mi, 78km
Updated: Tue, 25-Jun-2019 3:55pm EDT
Clear
Clear
 Wind from SSW
Wind: SSW 17 mph , 28 km/h, Gust: 21 mph , 33 km/h
Temperature: 81°F , 27°C
Heat Index: 82°F , 28°C
Dew Point: 61°F , 16°C
Humidity: 51%
Barometer: 29.99 inHg , 1015.6 hPa
Clouds: Clear
Visibility: 10 miles , 16 km
2019/06/25 19:55 KCFJ 251955Z AUTO 21015G18KT 10SM CLR 27/16 A2999 RMK AO2 T02660162